Time,TemperatureF,DewpointF,PressureIn,WindDirection,WindDirectionDegrees,WindSpeedMPH,WindSpeedGustMPH,Humidity,HourlyPrecipIn,Conditions,Clouds,dailyrainin,SoftwareType,DateUTC
2013-01-09 00:01:00,36.2,26.0,29.98,ENE,73,0.0,0.0,66,0.00,,---,0.00,VWS V13.01,2013-01-09 07:01:00,
2013-01-09 00:06:00,36.2,26.0,29.98,NNW,338,0.0,4.0,66,0.00,,---,0.00,VWS V13.01,2013-01-09 07:06:00,
2013-01-09 00:11:00,36.2,26.3,29.98,North,355,0.0,0.0,67,0.00,,---,0.00,VWS V13.01,2013-01-09 07:11:00,
2013-01-09 00:17:00,36.2,26.0,29.97,North,355,0.0,0.0,66,0.00,,---,0.00,VWS V13.01,2013-01-09 07:17:00,
2013-01-09 00:22:00,36.0,26.1,29.97,East,86,2.0,3.0,67,0.00,,---,0.00,VWS V13.01,2013-01-09 07:22:00,
2013-01-09 00:27:00,36.5,25.9,29.97,NW,319,1.0,2.0,65,0.00,,---,0.00,VWS V13.01,2013-01-09 07:27:00,
2013-01-09 00:32:00,36.5,25.9,29.96,NW,321,0.0,1.0,65,0.00,,---,0.00,VWS V13.01,2013-01-09 07:32:00,
2013-01-09 00:37:00,36.3,26.4,29.96,ENE,69,1.0,1.0,67,0.00,,---,0.00,VWS V13.01,2013-01-09 07:37:00,
2013-01-09 00:42:00,36.2,25.6,29.96,NNE,17,0.0,3.0,65,0.00,,---,0.00,VWS V13.01,2013-01-09 07:42:00,
2013-01-09 00:47:00,36.3,26.0,29.96,NE,53,0.0,2.0,66,0.00,,---,0.00,VWS V13.01,2013-01-09 07:47:00,
2013-01-09 00:52:00,36.5,26.2,29.96,ENE,68,0.0,2.0,66,0.00,,---,0.00,VWS V13.01,2013-01-09 07:52:00,
2013-01-09 00:57:00,36.9,25.5,29.96,ENE,77,0.0,2.0,63,0.00,,---,0.00,VWS V13.01,2013-01-09 07:57:00,
2013-01-09 01:02:00,37.5,25.7,29.95,ENE,59,0.0,3.0,62,0.00,,---,0.00,VWS V13.01,2013-01-09 08:02:00,
2013-01-09 01:07:00,37.8,25.6,29.95,ENE,63,4.0,6.0,61,0.00,,---,0.00,VWS V13.01,2013-01-09 08:07:00,
2013-01-09 01:12:00,38.3,25.6,29.95,ENE,62,4.0,7.0,60,0.00,,---,0.00,VWS V13.01,2013-01-09 08:12:00,
2013-01-09 01:18:00,39.1,25.6,29.92,NNE,30,2.0,11.0,58,0.00,,---,0.00,VWS V13.01,2013-01-09 08:18:00,
2013-01-09 01:23:00,39.5,24.7,29.92,NNE,19,4.0,6.0,55,0.00,,---,0.00,VWS V13.01,2013-01-09 08:23:00,
2013-01-09 01:28:00,40.1,25.7,29.92,NNE,30,3.0,4.0,56,0.00,,---,0.00,VWS V13.01,2013-01-09 08:28:00,
2013-01-09 01:33:00,40.5,24.7,29.93,NE,44,0.0,10.0,53,0.00,,---,0.00,VWS V13.01,2013-01-09 08:33:00,
2013-01-09 01:38:00,40.6,25.3,29.93,NNW,331,0.0,9.0,54,0.00,,---,0.00,VWS V13.01,2013-01-09 08:38:00,
2013-01-09 01:43:00,40.6,25.3,29.93,NNW,331,7.0,7.0,54,0.00,,---,0.00,VWS V13.01,2013-01-09 08:43:00,
2013-01-09 01:48:00,40.5,24.3,29.93,NNW,347,3.0,8.0,52,0.00,,---,0.00,VWS V13.01,2013-01-09 08:48:00,
2013-01-09 01:53:00,40.8,25.0,29.93,WNW,282,2.0,13.0,53,0.00,,---,0.00,VWS V13.01,2013-01-09 08:53:00,
2013-01-09 01:58:00,40.9,25.1,29.93,ENE,74,0.0,11.0,53,0.00,,---,0.00,VWS V13.01,2013-01-09 08:58:00,
2013-01-09 02:04:00,40.6,25.3,29.92,ESE,123,0.0,6.0,54,0.00,,---,0.00,VWS V13.01,2013-01-09 09:04:00,
2013-01-09 02:09:00,40.5,25.2,29.92,North,360,5.0,8.0,54,0.00,,---,0.00,VWS V13.01,2013-01-09 09:09:00,
2013-01-09 02:14:00,40.5,24.7,29.92,ENE,65,11.0,11.0,53,0.00,,---,0.00,VWS V13.01,2013-01-09 09:14:00,
2013-01-09 02:19:00,40.6,24.8,29.94,NE,39,2.0,14.0,53,0.00,,---,0.00,VWS V13.01,2013-01-09 09:19:00,
2013-01-09 02:24:00,40.6,25.3,29.94,North,355,0.0,6.0,54,0.00,,---,0.00,VWS V13.01,2013-01-09 09:24:00,
2013-01-09 02:29:00,40.6,24.4,29.94,ENE,66,4.0,7.0,52,0.00,,---,0.00,VWS V13.01,2013-01-09 09:29:00,
2013-01-09 02:34:00,40.6,23.9,29.94,NE,44,1.0,13.0,51,0.00,,---,0.00,VWS V13.01,2013-01-09 09:34:00,
2013-01-09 02:39:00,40.6,23.9,29.94,NNW,330,3.0,10.0,51,0.00,,---,0.00,VWS V13.01,2013-01-09 09:39:00,
2013-01-09 02:45:00,40.5,24.7,29.94,NW,306,2.0,12.0,53,0.00,,---,0.00,VWS V13.01,2013-01-09 09:45:00,
2013-01-09 02:50:00,40.8,24.5,29.94,East,101,1.0,17.0,52,0.00,,---,0.00,VWS V13.01,2013-01-09 09:50:00,
2013-01-09 02:55:00,40.8,24.5,29.94,NE,56,1.0,11.0,52,0.00,,---,0.00,VWS V13.01,2013-01-09 09:55:00,
2013-01-09 03:00:00,40.8,24.5,29.94,ENE,70,6.0,11.0,52,0.00,,---,0.00,VWS V13.01,2013-01-09 10:00:00,
2013-01-09 03:05:00,40.6,24.4,29.94,East,96,0.0,7.0,52,0.01,,---,0.01,VWS V13.01,2013-01-09 10:05:00,
2013-01-09 03:10:00,40.5,24.3,29.94,NE,46,5.0,11.0,52,0.01,,---,0.01,VWS V13.01,2013-01-09 10:10:00,
2013-01-09 03:15:00,40.6,24.4,29.93,NNE,32,2.0,12.0,52,0.01,,---,0.01,VWS V13.01,2013-01-09 10:15:00,
2013-01-09 03:20:00,40.8,24.1,29.93,ENE,60,10.0,10.0,51,0.01,,---,0.01,VWS V13.01,2013-01-09 10:20:00,
2013-01-09 03:25:00,40.9,24.6,29.93,NNW,337,0.0,1.0,52,0.01,,---,0.01,VWS V13.01,2013-01-09 10:25:00,
2013-01-09 03:31:00,40.8,24.5,29.92,ENE,71,11.0,11.0,52,0.01,,---,0.01,VWS V13.01,2013-01-09 10:31:00,
2013-01-09 03:36:00,40.8,23.6,29.92,NE,51,0.0,3.0,50,0.02,,---,0.02,VWS V13.01,2013-01-09 10:36:00,
2013-01-09 03:41:00,40.8,24.1,29.92,ENE,63,6.0,6.0,51,0.02,,---,0.02,VWS V13.01,2013-01-09 10:41:00,
2013-01-09 03:46:00,40.5,24.7,29.93,ENE,63,0.0,0.0,53,0.02,,---,0.02,VWS V13.01,2013-01-09 10:46:00,
2013-01-09 03:51:00,40.3,23.6,29.93,North,350,0.0,3.0,51,0.02,,---,0.02,VWS V13.01,2013-01-09 10:51:00,
2013-01-09 03:56:00,40.2,24.5,29.93,NNW,335,5.0,6.0,53,0.02,,---,0.02,VWS V13.01,2013-01-09 10:56:00,
2013-01-09 04:01:00,40.1,24.4,29.92,ENE,57,2.0,3.0,53,0.02,,---,0.02,VWS V13.01,2013-01-09 11:01:00,
2013-01-09 04:06:00,39.8,25.0,29.92,North,360,2.0,4.0,55,0.01,,---,0.02,VWS V13.01,2013-01-09 11:06:00,
2013-01-09 04:11:00,39.8,25.0,29.92,NNE,30,2.0,6.0,55,0.01,,---,0.02,VWS V13.01,2013-01-09 11:11:00,
2013-01-09 04:16:00,39.6,23.9,29.92,SSE,148,0.0,8.0,53,0.01,,---,0.02,VWS V13.01,2013-01-09 11:16:00,
2013-01-09 04:21:00,39.8,25.0,29.92,ENE,67,2.0,4.0,55,0.01,,---,0.02,VWS V13.01,2013-01-09 11:21:00,
2013-01-09 04:26:00,39.9,24.2,29.92,NW,321,6.0,7.0,53,0.01,,---,0.02,VWS V13.01,2013-01-09 11:26:00,
2013-01-09 04:32:00,40.1,23.4,29.93,North,355,0.0,5.0,51,0.02,,---,0.03,VWS V13.01,2013-01-09 11:32:00,
2013-01-09 04:37:00,40.1,23.9,29.93,East,86,3.0,11.0,52,0.01,,---,0.03,VWS V13.01,2013-01-09 11:37:00,
2013-01-09 04:42:00,40.2,24.9,29.93,SE,145,3.0,5.0,54,0.01,,---,0.03,VWS V13.01,2013-01-09 11:42:00,
2013-01-09 04:47:00,40.2,24.5,29.95,East,81,2.0,4.0,53,0.01,,---,0.03,VWS V13.01,2013-01-09 11:47:00,
2013-01-09 04:52:00,40.1,24.4,29.95,NNE,19,1.0,8.0,53,0.01,,---,0.03,VWS V13.01,2013-01-09 11:52:00,
2013-01-09 04:57:00,40.1,23.9,29.95,ENE,59,2.0,3.0,52,0.01,,---,0.03,VWS V13.01,2013-01-09 11:57:00,
2013-01-09 05:02:00,40.1,23.9,29.95,North,355,3.0,11.0,52,0.01,,---,0.03,VWS V13.01,2013-01-09 12:02:00,
2013-01-09 05:07:00,40.1,25.2,29.95,ENE,57,0.0,5.0,55,0.01,,---,0.03,VWS V13.01,2013-01-09 12:07:00,
2013-01-09 05:13:00,39.6,23.9,29.95,North,5,0.0,7.0,53,0.02,,---,0.04,VWS V13.01,2013-01-09 12:13:00,
2013-01-09 05:18:00,39.5,23.4,29.97,NNW,328,2.0,8.0,52,0.02,,---,0.04,VWS V13.01,2013-01-09 12:18:00,
2013-01-09 05:23:00,39.2,24.0,29.97,SE,132,7.0,7.0,54,0.02,,---,0.04,VWS V13.01,2013-01-09 12:23:00,
2013-01-09 05:28:00,39.1,24.7,29.97,NNW,344,0.0,4.0,56,0.02,,---,0.04,VWS V13.01,2013-01-09 12:28:00,
2013-01-09 05:33:00,38.8,24.0,29.97,NNE,21,4.0,6.0,55,0.01,,---,0.04,VWS V13.01,2013-01-09 12:33:00,
2013-01-09 05:38:00,38.3,24.0,29.97,NNE,22,2.0,4.0,56,0.01,,---,0.04,VWS V13.01,2013-01-09 12:38:00,
2013-01-09 05:43:00,38.0,24.5,29.97,ENE,71,2.0,2.0,58,0.01,,---,0.04,VWS V13.01,2013-01-09 12:43:00,
2013-01-09 05:48:00,37.8,22.7,29.98,North,10,1.0,4.0,54,0.01,,---,0.04,VWS V13.01,2013-01-09 12:48:00,
2013-01-09 05:53:00,37.5,23.7,29.98,ENE,64,0.0,4.0,57,0.01,,---,0.04,VWS V13.01,2013-01-09 12:53:00,
2013-01-09 05:58:00,37.2,23.8,29.98,NE,46,0.0,2.0,58,0.01,,---,0.04,VWS V13.01,2013-01-09 12:58:00,
2013-01-09 06:03:00,36.9,23.9,29.98,East,85,0.0,2.0,59,0.02,,---,0.05,VWS V13.01,2013-01-09 13:03:00,
2013-01-09 06:09:00,36.6,23.6,29.98,East,85,1.0,2.0,59,0.02,,---,0.05,VWS V13.01,2013-01-09 13:09:00,
2013-01-09 06:14:00,36.5,24.0,29.98,NNE,32,0.0,2.0,60,0.02,,---,0.05,VWS V13.01,2013-01-09 13:14:00,
2013-01-09 06:19:00,36.2,23.7,30.00,ENE,65,0.0,1.0,60,0.01,,---,0.05,VWS V13.01,2013-01-09 13:19:00,
2013-01-09 06:24:00,36.0,23.9,30.00,ENE,65,0.0,0.0,61,0.01,,---,0.05,VWS V13.01,2013-01-09 13:24:00,
2013-01-09 06:29:00,35.9,24.2,30.00,NE,42,1.0,2.0,62,0.01,,---,0.05,VWS V13.01,2013-01-09 13:29:00,
2013-01-09 06:34:00,35.6,23.9,30.01,NE,42,0.0,1.0,62,0.01,,---,0.05,VWS V13.01,2013-01-09 13:34:00,
2013-01-09 06:39:00,35.5,24.5,30.01,NE,42,0.0,0.0,64,0.01,,---,0.05,VWS V13.01,2013-01-09 13:39:00,
2013-01-09 06:44:00,35.2,23.1,30.01,NE,42,0.0,0.0,61,0.01,,---,0.05,VWS V13.01,2013-01-09 13:44:00,
2013-01-09 06:49:00,35.0,23.7,30.01,NE,42,0.0,0.0,63,0.01,,---,0.05,VWS V13.01,2013-01-09 13:49:00,
2013-01-09 06:54:00,34.7,21.9,30.01,NNE,33,0.0,4.0,59,0.01,,---,0.05,VWS V13.01,2013-01-09 13:54:00,
2013-01-09 07:00:00,34.6,22.5,30.01,North,355,0.0,3.0,61,0.01,,---,0.05,VWS V13.01,2013-01-09 14:00:00,
2013-01-09 07:05:00,34.9,22.4,30.01,ENE,59,2.0,3.0,60,0.01,,---,0.05,VWS V13.01,2013-01-09 14:05:00,
2013-01-09 07:10:00,35.0,22.1,30.01,NNE,15,0.0,3.0,59,0.00,,---,0.05,VWS V13.01,2013-01-09 14:10:00,
2013-01-09 07:15:00,35.0,22.9,30.03,NNE,15,0.0,1.0,61,0.00,,---,0.05,VWS V13.01,2013-01-09 14:15:00,
2013-01-09 07:20:00,34.7,23.0,30.03,NNE,27,2.0,2.0,62,0.00,,---,0.05,VWS V13.01,2013-01-09 14:20:00,
2013-01-09 07:25:00,34.6,22.9,30.03,NNE,27,0.0,1.0,62,0.00,,---,0.05,VWS V13.01,2013-01-09 14:25:00,
2013-01-09 07:30:00,34.4,22.7,30.04,East,84,0.0,2.0,62,0.00,,---,0.05,VWS V13.01,2013-01-09 14:30:00,
2013-01-09 07:35:00,34.3,23.0,30.04,East,84,0.0,1.0,63,0.00,,---,0.05,VWS V13.01,2013-01-09 14:35:00,
2013-01-09 07:40:00,34.3,23.4,30.04,ENE,63,0.0,5.0,64,0.00,,---,0.05,VWS V13.01,2013-01-09 14:40:00,
2013-01-09 07:45:00,34.0,22.0,30.05,NW,319,0.0,3.0,61,0.00,,---,0.05,VWS V13.01,2013-01-09 14:45:00,
2013-01-09 07:50:00,33.8,22.9,30.05,NW,319,0.0,0.0,64,0.00,,---,0.05,VWS V13.01,2013-01-09 14:50:00,
2013-01-09 07:55:00,33.5,21.1,30.05,NW,319,0.0,0.0,60,0.00,,---,0.05,VWS V13.01,2013-01-09 14:55:00,
2013-01-09 08:00:00,33.4,23.6,30.05,NW,319,0.0,1.0,67,0.00,,---,0.05,VWS V13.01,2013-01-09 15:00:00,
2013-01-09 08:05:00,33.2,23.1,30.05,NNW,343,3.0,3.0,66,0.00,,---,0.05,VWS V13.01,2013-01-09 15:05:00,
2013-01-09 08:10:00,33.1,22.6,30.05,NNW,345,0.0,3.0,65,0.00,,---,0.05,VWS V13.01,2013-01-09 15:10:00,
2013-01-09 08:15:00,32.9,22.1,30.03,ENE,60,0.0,6.0,64,0.00,,---,0.05,VWS V13.01,2013-01-09 15:15:00,
2013-01-09 08:20:00,32.8,21.6,30.03,NNE,31,2.0,4.0,63,0.00,,---,0.05,VWS V13.01,2013-01-09 15:20:00,
2013-01-09 08:25:00,32.7,21.5,30.03,ENE,67,0.0,0.0,63,0.00,,---,0.05,VWS V13.01,2013-01-09 15:25:00,
2013-01-09 08:31:00,32.7,21.1,30.03,NE,44,0.0,0.0,62,0.00,,---,0.05,VWS V13.01,2013-01-09 15:31:00,
2013-01-09 08:36:00,32.8,21.6,30.03,NE,42,0.0,2.0,63,0.00,,---,0.05,VWS V13.01,2013-01-09 15:36:00,
2013-01-09 08:41:00,32.9,21.3,30.03,NNE,26,0.0,0.0,62,0.00,,---,0.05,VWS V13.01,2013-01-09 15:41:00,
2013-01-09 08:46:00,33.1,21.5,30.03,NW,317,0.0,0.0,62,0.00,,---,0.05,VWS V13.01,2013-01-09 15:46:00,
2013-01-09 08:51:00,33.2,21.6,30.03,NNE,25,3.0,4.0,62,0.00,,---,0.05,VWS V13.01,2013-01-09 15:51:00,
2013-01-09 08:57:00,33.2,21.6,30.03,NNE,26,1.0,1.0,62,0.00,,---,0.05,VWS V13.01,2013-01-09 15:57:00,
2013-01-09 09:02:00,33.2,20.4,30.02,East,80,0.0,0.0,59,0.00,,---,0.05,VWS V13.01,2013-01-09 16:02:00,
2013-01-09 09:07:00,33.4,21.0,30.02,NNE,33,0.0,2.0,60,0.00,,---,0.05,VWS V13.01,2013-01-09 16:07:00,
2013-01-09 09:12:00,33.5,21.5,30.02,NNE,24,0.0,3.0,61,0.00,,---,0.05,VWS V13.01,2013-01-09 16:12:00,
2013-01-09 09:17:00,33.7,21.3,30.00,NE,48,0.0,2.0,60,0.00,,---,0.05,VWS V13.01,2013-01-09 16:17:00,
2013-01-09 09:23:00,34.0,22.0,30.00,NE,55,0.0,2.0,61,0.00,,---,0.05,VWS V13.01,2013-01-09 16:23:00,
2013-01-09 09:28:00,34.3,22.6,30.00,NNE,29,0.0,0.0,62,0.00,,---,0.05,VWS V13.01,2013-01-09 16:28:00,
2013-01-09 09:33:00,34.4,22.0,30.00,WNW,290,0.0,7.0,60,0.00,,---,0.05,VWS V13.01,2013-01-09 16:33:00,
2013-01-09 09:38:00,34.7,21.9,30.00,NE,55,1.0,4.0,59,0.00,,---,0.05,VWS V13.01,2013-01-09 16:38:00,
2013-01-09 09:43:00,35.0,22.1,30.00,ENE,71,0.0,2.0,59,0.00,,---,0.05,VWS V13.01,2013-01-09 16:43:00,
2013-01-09 09:48:00,35.2,22.3,29.98,ENE,71,0.0,2.0,59,0.00,,---,0.05,VWS V13.01,2013-01-09 16:48:00,
2013-01-09 09:54:00,35.5,21.4,29.98,NNE,33,0.0,6.0,56,0.00,,---,0.05,VWS V13.01,2013-01-09 16:54:00,
2013-01-09 09:59:00,35.8,22.5,29.98,NE,45,0.0,4.0,58,0.00,,---,0.05,VWS V13.01,2013-01-09 16:59:00,
2013-01-09 10:04:00,36.2,22.5,29.96,ENE,77,0.0,4.0,57,0.00,,---,0.05,VWS V13.01,2013-01-09 17:04:00,
2013-01-09 10:09:00,36.5,22.7,29.96,NNE,27,2.0,8.0,57,0.00,,---,0.05,VWS V13.01,2013-01-09 17:09:00,
2013-01-09 10:14:00,36.8,23.4,29.94,ENE,75,0.0,2.0,58,0.00,,---,0.05,VWS V13.01,2013-01-09 17:14:00,
2013-01-09 10:19:00,36.9,23.1,29.94,ENE,65,1.0,4.0,57,0.00,,---,0.05,VWS V13.01,2013-01-09 17:19:00,
2013-01-09 10:24:00,37.2,23.8,29.94,NE,39,0.0,3.0,58,0.00,,---,0.05,VWS V13.01,2013-01-09 17:24:00,
2013-01-09 10:30:00,37.5,24.1,29.92,NNE,25,0.0,2.0,58,0.00,,---,0.05,VWS V13.01,2013-01-09 17:30:00,
2013-01-09 10:35:00,37.6,24.6,29.92,NNE,25,0.0,2.0,59,0.00,,---,0.05,VWS V13.01,2013-01-09 17:35:00,
2013-01-09 10:40:00,37.9,23.6,29.92,ENE,77,0.0,4.0,56,0.00,,---,0.05,VWS V13.01,2013-01-09 17:40:00,
2013-01-09 10:45:00,38.2,22.6,29.92,NNE,22,4.0,7.0,53,0.00,,---,0.05,VWS V13.01,2013-01-09 17:45:00,
2013-01-09 10:50:00,38.5,24.6,29.92,NNE,26,0.0,4.0,57,0.00,,---,0.05,VWS V13.01,2013-01-09 17:50:00,
2013-01-09 10:55:00,38.6,24.7,29.92,NNE,30,0.0,3.0,57,0.00,,---,0.05,VWS V13.01,2013-01-09 17:55:00,
2013-01-09 11:00:00,38.8,24.0,29.91,NNE,26,0.0,4.0,55,0.00,,---,0.05,VWS V13.01,2013-01-09 18:00:00,
2013-01-09 11:05:00,38.9,23.2,29.91,NNE,30,0.0,2.0,53,0.00,,---,0.05,VWS V13.01,2013-01-09 18:05:00,
2013-01-09 11:10:00,39.2,24.0,29.91,ESE,109,1.0,6.0,54,0.00,,---,0.05,VWS V13.01,2013-01-09 18:10:00,
2013-01-09 11:15:00,39.5,22.9,29.90,East,100,0.0,2.0,51,0.00,,---,0.05,VWS V13.01,2013-01-09 18:15:00,
2013-01-09 11:20:00,39.8,24.5,29.90,SSW,201,0.0,4.0,54,0.00,,---,0.05,VWS V13.01,2013-01-09 18:20:00,
2013-01-09 11:25:00,39.9,22.8,29.90,NNE,18,0.0,1.0,50,0.00,,---,0.05,VWS V13.01,2013-01-09 18:25:00,
2013-01-09 11:30:00,40.2,24.0,29.89,East,79,0.0,5.0,52,0.00,,---,0.05,VWS V13.01,2013-01-09 18:30:00,
2013-01-09 11:35:00,40.5,23.8,29.89,East,82,0.0,8.0,51,0.00,,---,0.05,VWS V13.01,2013-01-09 18:35:00,
2013-01-09 11:40:00,40.8,25.0,29.89,ESE,102,0.0,3.0,53,0.00,,---,0.05,VWS V13.01,2013-01-09 18:40:00,
2013-01-09 11:41:00,40.8,23.6,29.89,WSW,240,0.0,6.0,50,0.01,,---,0.06,VWS V13.01,2013-01-09 18:41:00,
2013-01-09 11:42:00,40.9,24.6,29.89,WSW,246,0.0,6.0,52,0.01,,---,0.06,VWS V13.01,2013-01-09 18:42:00,
2013-01-09 11:43:00,40.9,24.6,29.89,WSW,246,0.0,6.0,52,0.01,,---,0.06,VWS V13.01,2013-01-09 18:43:00,
2013-01-09 11:44:00,40.9,24.6,29.89,ENE,75,1.0,6.0,52,0.01,,---,0.06,VWS V13.01,2013-01-09 18:44:00,
2013-01-09 11:46:00,41.1,23.9,29.87,SW,232,0.0,3.0,50,0.01,,---,0.06,VWS V13.01,2013-01-09 18:46:00,
2013-01-09 11:48:00,41.2,23.0,29.87,North,355,0.0,3.0,48,0.01,,---,0.06,VWS V13.01,2013-01-09 18:48:00,
2013-01-09 11:49:00,41.2,22.5,29.87,NE,34,0.0,3.0,47,0.01,,---,0.06,VWS V13.01,2013-01-09 18:49:00,
2013-01-09 11:50:00,41.3,23.6,29.87,North,10,0.0,3.0,49,0.01,,---,0.06,VWS V13.01,2013-01-09 18:50:00,
2013-01-09 11:55:00,41.6,24.8,29.87,NNE,22,0.0,1.0,51,0.01,,---,0.06,VWS V13.01,2013-01-09 18:55:00,
2013-01-09 12:00:00,41.6,24.4,29.85,NNE,19,1.0,6.0,50,0.01,,---,0.06,VWS V13.01,2013-01-09 19:00:00,
2013-01-09 12:05:00,41.5,25.2,29.85,NE,35,0.0,3.0,52,0.01,,---,0.06,VWS V13.01,2013-01-09 19:05:00,
2013-01-09 12:10:00,41.2,24.5,29.85,ESE,111,0.0,4.0,51,0.01,,---,0.06,VWS V13.01,2013-01-09 19:10:00,
2013-01-09 12:15:00,41.3,25.0,29.84,ENE,78,0.0,3.0,52,0.01,,---,0.06,VWS V13.01,2013-01-09 19:15:00,
2013-01-09 12:21:00,41.3,26.4,29.84,East,79,0.0,0.0,55,0.02,,---,0.07,VWS V13.01,2013-01-09 19:21:00,
2013-01-09 12:26:00,41.5,22.8,29.84,SSW,207,0.0,0.0,47,0.02,,---,0.07,VWS V13.01,2013-01-09 19:26:00,
2013-01-09 12:31:00,41.8,23.1,29.83,SSW,194,0.0,1.0,47,0.02,,---,0.07,VWS V13.01,2013-01-09 19:31:00,
2013-01-09 12:36:00,41.8,24.5,29.83,North,9,0.0,4.0,50,0.03,,---,0.08,VWS V13.01,2013-01-09 19:36:00,
2013-01-09 12:41:00,41.8,23.6,29.83,SSW,202,0.0,3.0,48,0.03,,---,0.08,VWS V13.01,2013-01-09 19:41:00,
2013-01-09 12:46:00,41.9,25.6,29.81,NE,43,0.0,0.0,52,0.03,,---,0.08,VWS V13.01,2013-01-09 19:46:00,
2013-01-09 12:51:00,42.2,22.9,29.81,West,261,3.0,5.0,46,0.02,,---,0.08,VWS V13.01,2013-01-09 19:51:00,
2013-01-09 12:57:00,42.6,22.8,29.81,NNW,347,7.0,10.0,45,0.03,,---,0.09,VWS V13.01,2013-01-09 19:57:00,
2013-01-09 13:02:00,42.6,24.8,29.80,NE,42,0.0,1.0,49,0.03,,---,0.09,VWS V13.01,2013-01-09 20:02:00,
2013-01-09 13:07:00,42.6,25.3,29.80,NE,42,0.0,1.0,50,0.03,,---,0.09,VWS V13.01,2013-01-09 20:07:00,
2013-01-09 13:12:00,42.5,25.7,29.80,NE,36,3.0,6.0,51,0.03,,---,0.09,VWS V13.01,2013-01-09 20:12:00,
2013-01-09 13:17:00,42.6,26.2,29.77,SE,135,0.0,4.0,52,0.03,,---,0.09,VWS V13.01,2013-01-09 20:17:00,
2013-01-09 13:22:00,43.1,24.3,29.77,East,86,0.0,1.0,47,0.03,,---,0.10,VWS V13.01,2013-01-09 20:22:00,
2013-01-09 13:27:00,43.1,24.3,29.77,South,190,0.0,3.0,47,0.03,,---,0.10,VWS V13.01,2013-01-09 20:27:00,
2013-01-09 13:33:00,42.9,26.0,29.76,South,190,0.0,0.0,51,0.03,,---,0.10,VWS V13.01,2013-01-09 20:33:00,
2013-01-09 13:38:00,42.8,25.5,29.76,North,5,0.0,3.0,50,0.03,,---,0.11,VWS V13.01,2013-01-09 20:38:00,
2013-01-09 13:43:00,42.5,26.1,29.76,NNE,26,3.0,5.0,52,0.03,,---,0.11,VWS V13.01,2013-01-09 20:43:00,
2013-01-09 13:48:00,42.3,25.5,29.76,NNE,26,0.0,0.0,51,0.03,,---,0.11,VWS V13.01,2013-01-09 20:48:00,
2013-01-09 13:53:00,42.2,25.9,29.76,NNE,26,0.0,1.0,52,0.03,,---,0.11,VWS V13.01,2013-01-09 20:53:00,
2013-01-09 13:59:00,42.2,25.9,29.76,NNE,26,0.0,1.0,52,0.02,,---,0.11,VWS V13.01,2013-01-09 20:59:00,
2013-01-09 14:04:00,42.1,26.2,29.76,NNE,26,0.0,0.0,53,0.03,,---,0.12,VWS V13.01,2013-01-09 21:04:00,
2013-01-09 14:09:00,41.9,26.0,29.76,NNE,26,0.0,0.0,53,0.03,,---,0.12,VWS V13.01,2013-01-09 21:09:00,
2013-01-09 14:14:00,41.9,26.9,29.76,NNE,26,0.0,0.0,55,0.03,,---,0.12,VWS V13.01,2013-01-09 21:14:00,
2013-01-09 14:19:00,41.5,27.4,29.76,NNE,26,0.0,0.0,57,0.03,,---,0.12,VWS V13.01,2013-01-09 21:19:00,
2013-01-09 14:25:00,41.1,26.2,29.76,NNE,26,0.0,0.0,55,0.02,,---,0.12,VWS V13.01,2013-01-09 21:25:00,
2013-01-09 14:30:00,40.9,26.9,29.75,NNE,26,0.0,0.0,57,0.03,,---,0.13,VWS V13.01,2013-01-09 21:30:00,
2013-01-09 14:35:00,40.6,26.6,29.75,NNE,26,0.0,0.0,57,0.03,,---,0.13,VWS V13.01,2013-01-09 21:35:00,
2013-01-09 14:40:00,40.2,27.8,29.75,NNE,26,0.0,0.0,61,0.02,,---,0.13,VWS V13.01,2013-01-09 21:40:00,
2013-01-09 14:45:00,39.9,27.6,29.76,NNE,26,0.0,0.0,61,0.02,,---,0.13,VWS V13.01,2013-01-09 21:45:00,
2013-01-09 14:51:00,39.9,26.3,29.76,NNE,26,0.0,0.0,58,0.02,,---,0.13,VWS V13.01,2013-01-09 21:51:00,
2013-01-09 14:56:00,39.9,27.6,29.76,NNE,26,0.0,0.0,61,0.02,,---,0.13,VWS V13.01,2013-01-09 21:56:00,
2013-01-09 15:01:00,39.9,25.9,29.75,NE,45,0.0,0.0,57,0.02,,---,0.13,VWS V13.01,2013-01-09 22:01:00,
2013-01-09 15:06:00,40.1,26.9,29.75,NE,45,0.0,0.0,59,0.01,,---,0.13,VWS V13.01,2013-01-09 22:06:00,
2013-01-09 15:12:00,39.9,27.2,29.75,NNW,344,0.0,3.0,60,0.02,,---,0.14,VWS V13.01,2013-01-09 22:12:00,
2013-01-09 15:17:00,39.9,26.3,29.75,ENE,58,1.0,2.0,58,0.02,,---,0.14,VWS V13.01,2013-01-09 22:17:00,
2013-01-09 15:22:00,40.1,26.1,29.75,ENE,58,0.0,1.0,57,0.02,,---,0.14,VWS V13.01,2013-01-09 22:22:00,
2013-01-09 15:27:00,40.3,25.0,29.75,NW,315,0.0,1.0,54,0.02,,---,0.14,VWS V13.01,2013-01-09 22:27:00,
2013-01-09 15:33:00,40.8,25.5,29.74,ENE,61,0.0,3.0,54,0.01,,---,0.14,VWS V13.01,2013-01-09 22:33:00,
2013-01-09 15:38:00,40.8,25.9,29.74,WSW,239,0.0,0.0,55,0.01,,---,0.14,VWS V13.01,2013-01-09 22:38:00,
2013-01-09 15:43:00,40.5,26.5,29.74,NNE,29,0.0,6.0,57,0.01,,---,0.14,VWS V13.01,2013-01-09 22:43:00,
2013-01-09 15:49:00,40.3,26.7,29.73,NNE,29,0.0,3.0,58,0.01,,---,0.14,VWS V13.01,2013-01-09 22:49:00,
2013-01-09 15:54:00,40.2,25.3,29.73,NNW,344,0.0,2.0,55,0.01,,---,0.14,VWS V13.01,2013-01-09 22:54:00,
2013-01-09 15:59:00,40.2,26.2,29.73,SE,142,0.0,3.0,57,0.02,,---,0.15,VWS V13.01,2013-01-09 22:59:00,
2013-01-09 16:04:00,40.2,24.9,29.72,West,265,3.0,5.0,54,0.02,,---,0.15,VWS V13.01,2013-01-09 23:04:00,
2013-01-09 16:09:00,40.9,25.5,29.72,ESE,108,0.0,6.0,54,0.02,,---,0.15,VWS V13.01,2013-01-09 23:09:00,
2013-01-09 16:14:00,41.2,26.3,29.71,WSW,256,0.0,3.0,55,0.02,,---,0.15,VWS V13.01,2013-01-09 23:14:00,
2013-01-09 16:20:00,40.9,26.0,29.71,North,5,0.0,6.0,55,0.01,,---,0.15,VWS V13.01,2013-01-09 23:20:00,
2013-01-09 16:25:00,40.5,24.3,29.71,ENE,64,0.0,3.0,52,0.01,,---,0.15,VWS V13.01,2013-01-09 23:25:00,
2013-01-09 16:30:00,40.2,24.9,29.71,ENE,64,0.0,3.0,54,0.01,,---,0.15,VWS V13.01,2013-01-09 23:30:00,
2013-01-09 16:35:00,40.2,25.3,29.71,NW,326,0.0,3.0,55,0.01,,---,0.15,VWS V13.01,2013-01-09 23:35:00,
2013-01-09 16:40:00,39.9,25.5,29.71,NNE,33,1.0,2.0,56,0.01,,---,0.15,VWS V13.01,2013-01-09 23:40:00,
2013-01-09 16:45:00,39.9,24.6,29.70,West,277,3.0,7.0,54,0.01,,---,0.15,VWS V13.01,2013-01-09 23:45:00,
2013-01-09 16:50:00,40.6,24.8,29.70,NNE,25,2.0,9.0,53,0.01,,---,0.15,VWS V13.01,2013-01-09 23:50:00,
2013-01-09 16:55:00,41.1,24.4,29.70,North,5,0.0,6.0,51,0.01,,---,0.15,VWS V13.01,2013-01-09 23:55:00,
2013-01-09 17:00:00,41.2,24.0,29.69,WNW,287,0.0,0.0,50,0.00,,---,0.15,VWS V13.01,2013-01-10 00:00:00,
2013-01-09 17:05:00,41.1,23.9,29.69,NNW,342,1.0,1.0,50,0.00,,---,0.15,VWS V13.01,2013-01-10 00:05:00,
2013-01-09 17:11:00,40.9,25.1,29.69,NE,38,0.0,0.0,53,0.01,,---,0.16,VWS V13.01,2013-01-10 00:11:00,
2013-01-09 17:17:00,40.3,25.4,29.70,ENE,76,0.0,0.0,55,0.01,,---,0.16,VWS V13.01,2013-01-10 00:17:00,
2013-01-09 17:22:00,39.9,26.8,29.70,ENE,76,0.0,2.0,59,0.01,,---,0.16,VWS V13.01,2013-01-10 00:22:00,
2013-01-09 17:27:00,39.3,23.6,29.70,SSW,202,0.0,2.0,53,0.01,,---,0.16,VWS V13.01,2013-01-10 00:27:00,
2013-01-09 17:32:00,39.2,25.3,29.71,NNE,22,0.0,1.0,57,0.01,,---,0.16,VWS V13.01,2013-01-10 00:32:00,
2013-01-09 17:37:00,38.9,25.0,29.71,NNW,337,0.0,0.0,57,0.01,,---,0.16,VWS V13.01,2013-01-10 00:37:00,
2013-01-09 17:42:00,38.5,25.4,29.71,NNW,338,0.0,0.0,59,0.01,,---,0.16,VWS V13.01,2013-01-10 00:42:00,
2013-01-09 17:48:00,38.2,24.7,29.71,NNW,338,0.0,0.0,58,0.01,,---,0.16,VWS V13.01,2013-01-10 00:48:00,
2013-01-09 17:53:00,37.9,26.1,29.71,North,355,0.0,1.0,62,0.01,,---,0.16,VWS V13.01,2013-01-10 00:53:00,
2013-01-09 17:58:00,37.8,24.8,29.71,WNW,295,0.0,1.0,59,0.01,,---,0.16,VWS V13.01,2013-01-10 00:58:00,
2013-01-09 18:03:00,37.6,25.4,29.71,WNW,296,0.0,0.0,61,0.01,,---,0.16,VWS V13.01,2013-01-10 01:03:00,
2013-01-09 18:08:00,37.3,25.1,29.71,WNW,296,0.0,0.0,61,0.01,,---,0.16,VWS V13.01,2013-01-10 01:08:00,
2013-01-09 18:13:00,37.2,24.6,29.71,West,275,0.0,3.0,60,0.00,,---,0.16,VWS V13.01,2013-01-10 01:13:00,
2013-01-09 18:18:00,37.0,24.4,29.71,West,274,0.0,1.0,60,0.00,,---,0.16,VWS V13.01,2013-01-10 01:18:00,
2013-01-09 18:24:00,37.0,25.6,29.71,West,279,0.0,1.0,63,0.00,,---,0.16,VWS V13.01,2013-01-10 01:24:00,
2013-01-09 18:29:00,37.0,25.2,29.71,West,279,0.0,0.0,62,0.00,,---,0.16,VWS V13.01,2013-01-10 01:29:00,
2013-01-09 18:34:00,36.9,25.1,29.71,WNW,284,0.0,1.0,62,0.00,,---,0.16,VWS V13.01,2013-01-10 01:34:00,
2013-01-09 18:39:00,36.9,25.1,29.71,WNW,284,0.0,0.0,62,0.00,,---,0.16,VWS V13.01,2013-01-10 01:39:00,
2013-01-09 18:44:00,36.8,25.0,29.71,WNW,284,0.0,1.0,62,0.00,,---,0.16,VWS V13.01,2013-01-10 01:44:00,
2013-01-09 18:49:00,36.8,25.4,29.71,WNW,284,0.0,2.0,63,0.00,,---,0.16,VWS V13.01,2013-01-10 01:49:00,
2013-01-09 18:55:00,36.6,24.8,29.71,WNW,284,0.0,0.0,62,0.00,,---,0.16,VWS V13.01,2013-01-10 01:55:00,
2013-01-09 19:00:00,36.6,25.2,29.71,WNW,284,0.0,0.0,63,0.00,,---,0.16,VWS V13.01,2013-01-10 02:00:00,
2013-01-09 19:05:00,36.8,25.0,29.71,West,271,0.0,3.0,62,0.00,,---,0.16,VWS V13.01,2013-01-10 02:05:00,
2013-01-09 19:10:00,36.8,25.8,29.71,West,271,0.0,0.0,64,0.00,,---,0.16,VWS V13.01,2013-01-10 02:10:00,
2013-01-09 19:15:00,36.6,24.0,29.72,West,271,0.0,1.0,60,0.00,,---,0.16,VWS V13.01,2013-01-10 02:15:00,
2013-01-09 19:20:00,36.6,24.0,29.72,West,271,0.0,0.0,60,0.00,,---,0.16,VWS V13.01,2013-01-10 02:20:00,
2013-01-09 19:25:00,36.5,25.1,29.72,West,271,0.0,0.0,63,0.00,,---,0.16,VWS V13.01,2013-01-10 02:25:00,
2013-01-09 19:30:00,36.3,24.9,29.73,West,271,0.0,1.0,63,0.00,,---,0.16,VWS V13.01,2013-01-10 02:30:00,
2013-01-09 19:35:00,36.3,25.3,29.73,West,271,0.0,0.0,64,0.00,,---,0.16,VWS V13.01,2013-01-10 02:35:00,
2013-01-09 19:40:00,36.5,24.7,29.73,West,271,0.0,0.0,62,0.00,,---,0.16,VWS V13.01,2013-01-10 02:40:00,
2013-01-09 19:45:00,36.5,25.9,29.72,West,271,0.0,0.0,65,0.00,,---,0.16,VWS V13.01,2013-01-10 02:45:00,
2013-01-09 19:50:00,36.5,25.5,29.72,West,271,0.0,0.0,64,0.00,,---,0.16,VWS V13.01,2013-01-10 02:50:00,
2013-01-09 19:56:00,36.3,25.3,29.72,West,271,0.0,0.0,64,0.00,,---,0.16,VWS V13.01,2013-01-10 02:56:00,
2013-01-09 20:01:00,36.3,25.3,29.73,West,271,0.0,0.0,64,0.00,,---,0.16,VWS V13.01,2013-01-10 03:01:00,
2013-01-09 20:06:00,36.2,25.6,29.73,West,271,0.0,0.0,65,0.00,,---,0.16,VWS V13.01,2013-01-10 03:06:00,
2013-01-09 20:11:00,36.2,25.2,29.73,West,271,0.0,0.0,64,0.00,,---,0.16,VWS V13.01,2013-01-10 03:11:00,
2013-01-09 20:16:00,36.2,25.2,29.72,West,271,0.0,0.0,64,0.00,,---,0.16,VWS V13.01,2013-01-10 03:16:00,
2013-01-09 20:22:00,36.0,25.8,29.72,West,271,0.0,0.0,66,0.00,,---,0.16,VWS V13.01,2013-01-10 03:22:00,
2013-01-09 20:27:00,36.0,25.0,29.72,ENE,66,0.0,0.0,64,0.00,,---,0.16,VWS V13.01,2013-01-10 03:27:00,
2013-01-09 20:32:00,36.0,24.6,29.72,ENE,65,0.0,0.0,63,0.00,,---,0.16,VWS V13.01,2013-01-10 03:32:00,
2013-01-09 20:37:00,36.0,25.8,29.72,ENE,65,0.0,0.0,66,0.00,,---,0.16,VWS V13.01,2013-01-10 03:37:00,
2013-01-09 20:42:00,36.0,25.0,29.72,ENE,65,0.0,0.0,64,0.00,,---,0.16,VWS V13.01,2013-01-10 03:42:00,
2013-01-09 20:47:00,36.2,25.2,29.71,ENE,65,0.0,0.0,64,0.00,,---,0.16,VWS V13.01,2013-01-10 03:47:00,
2013-01-09 20:52:00,36.2,24.5,29.71,ENE,65,0.0,0.0,62,0.00,,---,0.16,VWS V13.01,2013-01-10 03:52:00,
2013-01-09 20:57:00,36.3,26.0,29.71,ENE,65,0.0,0.0,66,0.00,,---,0.16,VWS V13.01,2013-01-10 03:57:00,
2013-01-09 21:02:00,36.2,26.0,29.71,ENE,65,0.0,0.0,66,0.00,,---,0.16,VWS V13.01,2013-01-10 04:02:00,
2013-01-09 21:07:00,36.2,25.6,29.71,ENE,65,0.0,0.0,65,0.00,,---,0.16,VWS V13.01,2013-01-10 04:07:00,
2013-01-09 21:12:00,36.3,25.3,29.71,ENE,65,0.0,0.0,64,0.00,,---,0.16,VWS V13.01,2013-01-10 04:12:00,
2013-01-09 21:17:00,36.3,24.9,29.69,ENE,65,0.0,0.0,63,0.00,,---,0.16,VWS V13.01,2013-01-10 04:17:00,
2013-01-09 21:22:00,36.5,25.5,29.69,ENE,65,0.0,0.0,64,0.00,,---,0.16,VWS V13.01,2013-01-10 04:22:00,
2013-01-09 21:28:00,36.5,25.9,29.69,ENE,65,0.0,0.0,65,0.00,,---,0.16,VWS V13.01,2013-01-10 04:28:00,
2013-01-09 21:33:00,36.3,25.3,29.69,ENE,65,0.0,0.0,64,0.00,,---,0.16,VWS V13.01,2013-01-10 04:33:00,
2013-01-09 21:38:00,36.3,25.3,29.69,ENE,65,0.0,0.0,64,0.00,,---,0.16,VWS V13.01,2013-01-10 04:38:00,
2013-01-09 21:43:00,36.3,25.3,29.69,SSE,157,0.0,1.0,64,0.00,,---,0.16,VWS V13.01,2013-01-10 04:43:00,
2013-01-09 21:48:00,36.3,25.7,29.69,SSE,157,0.0,0.0,65,0.00,,---,0.16,VWS V13.01,2013-01-10 04:48:00,
2013-01-09 21:53:00,36.3,25.7,29.69,SSE,157,0.0,0.0,65,0.00,,---,0.16,VWS V13.01,2013-01-10 04:53:00,
2013-01-09 21:58:00,36.3,25.7,29.69,SSE,157,0.0,0.0,65,0.00,,---,0.16,VWS V13.01,2013-01-10 04:58:00,
2013-01-09 22:00:00,36.3,25.3,29.67,SSE,157,0.0,0.0,64,0.00,,---,0.16,VWS V13.01,2013-01-10 05:00:00,
2013-01-09 22:01:00,36.3,24.9,29.67,ENE,67,1.0,1.0,63,0.00,,---,0.16,VWS V13.01,2013-01-10 05:01:00,
2013-01-09 22:02:00,36.3,24.1,29.67,ENE,67,0.0,1.0,61,0.00,,---,0.16,VWS V13.01,2013-01-10 05:02:00,
2013-01-09 22:07:00,36.3,25.3,29.67,ENE,67,0.0,1.0,64,0.00,,---,0.16,VWS V13.01,2013-01-10 05:07:00,
2013-01-09 22:12:00,36.3,25.3,29.67,ENE,67,0.0,0.0,64,0.00,,---,0.16,VWS V13.01,2013-01-10 05:12:00,
2013-01-09 22:17:00,36.3,25.7,29.66,ENE,67,0.0,0.0,65,0.00,,---,0.16,VWS V13.01,2013-01-10 05:17:00,
2013-01-09 22:23:00,36.3,24.9,29.66,ENE,67,0.0,1.0,63,0.00,,---,0.16,VWS V13.01,2013-01-10 05:23:00,
2013-01-09 22:28:00,36.3,24.9,29.66,ENE,67,0.0,0.0,63,0.00,,---,0.16,VWS V13.01,2013-01-10 05:28:00,
2013-01-09 22:33:00,36.5,25.1,29.64,ENE,67,0.0,0.0,63,0.00,,---,0.16,VWS V13.01,2013-01-10 05:33:00,
2013-01-09 22:38:00,36.6,24.8,29.64,ENE,67,0.0,0.0,62,0.00,,---,0.16,VWS V13.01,2013-01-10 05:38:00,
2013-01-09 22:43:00,36.8,25.8,29.64,ENE,67,0.0,0.0,64,0.00,,---,0.16,VWS V13.01,2013-01-10 05:43:00,
2013-01-09 22:48:00,36.8,23.8,29.63,ENE,67,0.0,0.0,59,0.00,,---,0.16,VWS V13.01,2013-01-10 05:48:00,
2013-01-09 22:54:00,36.9,24.7,29.63,ENE,67,0.0,0.0,61,0.00,,---,0.16,VWS V13.01,2013-01-10 05:54:00,
2013-01-09 22:59:00,36.9,25.1,29.63,ENE,67,0.0,0.0,62,0.00,,---,0.16,VWS V13.01,2013-01-10 05:59:00,
2013-01-09 23:04:00,36.9,24.7,29.63,ENE,67,0.0,0.0,61,0.00,,---,0.16,VWS V13.01,2013-01-10 06:04:00,
2013-01-09 23:09:00,36.9,25.1,29.63,ENE,67,0.0,0.0,62,0.00,,---,0.16,VWS V13.01,2013-01-10 06:09:00,
2013-01-09 23:15:00,36.9,24.3,29.62,ENE,67,0.0,0.0,60,0.00,,---,0.16,VWS V13.01,2013-01-10 06:15:00,
2013-01-09 23:20:00,36.8,24.6,29.62,ENE,67,0.0,0.0,61,0.00,,---,0.16,VWS V13.01,2013-01-10 06:20:00,
2013-01-09 23:25:00,36.6,24.8,29.62,ENE,67,0.0,0.0,62,0.00,,---,0.16,VWS V13.01,2013-01-10 06:25:00,
2013-01-09 23:30:00,36.5,25.1,29.61,ENE,67,0.0,0.0,63,0.00,,---,0.16,VWS V13.01,2013-01-10 06:30:00,
2013-01-09 23:35:00,36.3,25.3,29.61,ENE,67,0.0,0.0,64,0.00,,---,0.16,VWS V13.01,2013-01-10 06:35:00,
2013-01-09 23:40:00,36.3,25.7,29.61,ENE,67,0.0,0.0,65,0.00,,---,0.16,VWS V13.01,2013-01-10 06:40:00,
2013-01-09 23:45:00,36.2,25.6,29.60,ENE,67,0.0,0.0,65,0.00,,---,0.16,VWS V13.01,2013-01-10 06:45:00,
2013-01-09 23:50:00,36.2,25.6,29.60,ENE,67,0.0,0.0,65,0.00,,---,0.16,VWS V13.01,2013-01-10 06:50:00,
2013-01-09 23:55:00,36.0,24.6,29.60,ENE,67,0.0,0.0,63,0.00,,---,0.16,VWS V13.01,2013-01-10 06:55:00,